sensor_id;sensor_type;location;lat;lon;timestamp;P1;durP1;ratioP1;P2;durP2;ratioP2
76733;SDS011;65660;53.288;14.666;2023-04-01T00:01:58;4.27;;;3.73;;
76733;SDS011;65660;53.288;14.666;2023-04-01T00:06:59;5.27;;;3.40;;
76733;SDS011;65660;53.288;14.666;2023-04-01T00:12:00;4.07;;;3.40;;
76733;SDS011;65660;53.288;14.666;2023-04-01T00:17:01;5.17;;;3.77;;
76733;SDS011;65660;53.288;14.666;2023-04-01T00:22:02;5.97;;;3.93;;
76733;SDS011;65660;53.288;14.666;2023-04-01T00:27:03;5.67;;;4.03;;
76733;SDS011;65660;53.288;14.666;2023-04-01T00:32:03;6.00;;;4.30;;
76733;SDS011;65660;53.288;14.666;2023-04-01T00:37:05;6.83;;;4.87;;
76733;SDS011;65660;53.288;14.666;2023-04-01T00:42:08;5.93;;;4.63;;
76733;SDS011;65660;53.288;14.666;2023-04-01T00:47:09;6.67;;;4.97;;
76733;SDS011;65660;53.288;14.666;2023-04-01T00:52:11;8.20;;;5.53;;
76733;SDS011;65660;53.288;14.666;2023-04-01T00:57:15;7.17;;;5.53;;
76733;SDS011;65660;53.288;14.666;2023-04-01T01:02:19;8.37;;;5.87;;
76733;SDS011;65660;53.288;14.666;2023-04-01T01:12:35;9.30;;;6.20;;
76733;SDS011;65660;53.288;14.666;2023-04-01T01:28:38;9.27;;;6.40;;
76733;SDS011;65660;53.288;14.666;2023-04-01T01:34:18;9.23;;;6.40;;
76733;SDS011;65660;53.288;14.666;2023-04-01T01:39:26;8.23;;;5.87;;
76733;SDS011;65660;53.288;14.666;2023-04-01T01:44:30;14.97;;;7.67;;
76733;SDS011;65660;53.288;14.666;2023-04-01T01:49:32;13.90;;;8.23;;
76733;SDS011;65660;53.288;14.666;2023-04-01T01:54:34;13.80;;;8.00;;
76733;SDS011;65660;53.288;14.666;2023-04-01T01:59:37;13.60;;;7.50;;
76733;SDS011;65660;53.288;14.666;2023-04-01T02:04:39;12.53;;;6.90;;
76733;SDS011;65660;53.288;14.666;2023-04-01T02:09:42;6.07;;;4.00;;
76733;SDS011;65660;53.288;14.666;2023-04-01T02:14:45;5.90;;;3.63;;
76733;SDS011;65660;53.288;14.666;2023-04-01T02:19:56;5.93;;;3.80;;
76733;SDS011;65660;53.288;14.666;2023-04-01T02:24:59;7.00;;;4.23;;
76733;SDS011;65660;53.288;14.666;2023-04-01T02:30:11;4.97;;;4.00;;
76733;SDS011;65660;53.288;14.666;2023-04-01T02:35:14;4.37;;;3.40;;
76733;SDS011;65660;53.288;14.666;2023-04-01T02:40:16;3.67;;;3.03;;
76733;SDS011;65660;53.288;14.666;2023-04-01T02:45:17;4.57;;;3.47;;
76733;SDS011;65660;53.288;14.666;2023-04-01T02:50:18;4.37;;;3.50;;
76733;SDS011;65660;53.288;14.666;2023-04-01T02:55:19;6.17;;;3.80;;
76733;SDS011;65660;53.288;14.666;2023-04-01T03:00:20;5.83;;;4.30;;
76733;SDS011;65660;53.288;14.666;2023-04-01T03:05:21;6.23;;;4.00;;
76733;SDS011;65660;53.288;14.666;2023-04-01T03:10:21;7.30;;;4.83;;
76733;SDS011;65660;53.288;14.666;2023-04-01T03:15:22;9.37;;;5.00;;
76733;SDS011;65660;53.288;14.666;2023-04-01T03:20:23;6.73;;;4.80;;
76733;SDS011;65660;53.288;14.666;2023-04-01T03:25:24;6.83;;;4.60;;
76733;SDS011;65660;53.288;14.666;2023-04-01T03:30:25;8.83;;;5.50;;
76733;SDS011;65660;53.288;14.666;2023-04-01T03:35:26;9.27;;;5.23;;
76733;SDS011;65660;53.288;14.666;2023-04-01T03:40:27;7.93;;;5.03;;
76733;SDS011;65660;53.288;14.666;2023-04-01T03:45:28;8.37;;;5.03;;
76733;SDS011;65660;53.288;14.666;2023-04-01T03:50:29;7.97;;;4.77;;
76733;SDS011;65660;53.288;14.666;2023-04-01T03:55:29;7.03;;;4.73;;
76733;SDS011;65660;53.288;14.666;2023-04-01T04:00:30;8.70;;;4.60;;
76733;SDS011;65660;53.288;14.666;2023-04-01T04:05:31;6.13;;;4.47;;
76733;SDS011;65660;53.288;14.666;2023-04-01T04:10:32;7.17;;;4.10;;
76733;SDS011;65660;53.288;14.666;2023-04-01T04:15:33;6.43;;;5.80;;
76733;SDS011;65660;53.288;14.666;2023-04-01T04:20:35;6.33;;;4.77;;
76733;SDS011;65660;53.288;14.666;2023-04-01T04:25:36;6.73;;;4.83;;
76733;SDS011;65660;53.288;14.666;2023-04-01T04:30:37;6.27;;;4.40;;
76733;SDS011;65660;53.288;14.666;2023-04-01T04:35:39;5.53;;;3.87;;
76733;SDS011;65660;53.288;14.666;2023-04-01T04:40:42;5.40;;;3.70;;
76733;SDS011;65660;53.288;14.666;2023-04-01T04:45:44;7.33;;;4.57;;
76733;SDS011;65660;53.288;14.666;2023-04-01T04:50:49;5.97;;;4.23;;
76733;SDS011;65660;53.288;14.666;2023-04-01T04:55:50;7.33;;;4.33;;
76733;SDS011;65660;53.288;14.666;2023-04-01T05:00:51;6.33;;;4.77;;
76733;SDS011;65660;53.288;14.666;2023-04-01T05:05:53;5.60;;;4.50;;
76733;SDS011;65660;53.288;14.666;2023-04-01T05:10:55;7.67;;;4.90;;
76733;SDS011;65660;53.288;14.666;2023-04-01T05:15:56;6.33;;;4.80;;
76733;SDS011;65660;53.288;14.666;2023-04-01T05:20:57;5.70;;;4.50;;
76733;SDS011;65660;53.288;14.666;2023-04-01T05:25:58;6.30;;;4.43;;
76733;SDS011;65660;53.288;14.666;2023-04-01T05:31:03;6.23;;;4.50;;
76733;SDS011;65660;53.288;14.666;2023-04-01T05:41:08;6.40;;;4.70;;
76733;SDS011;65660;53.288;14.666;2023-04-01T05:46:09;7.07;;;4.63;;
76733;SDS011;65660;53.288;14.666;2023-04-01T05:51:13;6.80;;;4.77;;
76733;SDS011;65660;53.288;14.666;2023-04-01T05:56:15;7.50;;;5.20;;
76733;SDS011;65660;53.288;14.666;2023-04-01T06:01:16;6.37;;;4.90;;
76733;SDS011;65660;53.288;14.666;2023-04-01T06:06:24;9.73;;;5.67;;
76733;SDS011;65660;53.288;14.666;2023-04-01T06:11:30;8.40;;;5.57;;
76733;SDS011;65660;53.288;14.666;2023-04-01T06:21:47;7.43;;;5.00;;
76733;SDS011;65660;53.288;14.666;2023-04-01T06:27:06;7.57;;;5.20;;
76733;SDS011;65660;53.288;14.666;2023-04-01T06:32:22;7.57;;;5.07;;
76733;SDS011;65660;53.288;14.666;2023-04-01T06:48:28;6.47;;;4.57;;
76733;SDS011;65660;53.288;14.666;2023-04-01T06:54:07;6.37;;;4.27;;
76733;SDS011;65660;53.288;14.666;2023-04-01T06:59:20;6.33;;;4.20;;
76733;SDS011;65660;53.288;14.666;2023-04-01T07:04:28;9.20;;;5.70;;
76733;SDS011;65660;53.288;14.666;2023-04-01T07:09:32;6.73;;;4.70;;
76733;SDS011;65660;53.288;14.666;2023-04-01T07:14:36;9.47;;;6.57;;
76733;SDS011;65660;53.288;14.666;2023-04-01T07:24:46;7.73;;;5.37;;
76733;SDS011;65660;53.288;14.666;2023-04-01T07:29:47;6.30;;;4.30;;
76733;SDS011;65660;53.288;14.666;2023-04-01T07:35:09;6.30;;;4.23;;
76733;SDS011;65660;53.288;14.666;2023-04-01T07:46:18;6.20;;;4.30;;
76733;SDS011;65660;53.288;14.666;2023-04-01T07:51:29;6.10;;;4.33;;
76733;SDS011;65660;53.288;14.666;2023-04-01T08:02:30;6.93;;;4.80;;
76733;SDS011;65660;53.288;14.666;2023-04-01T08:17:36;6.23;;;4.67;;
76733;SDS011;65660;53.288;14.666;2023-04-01T08:22:43;6.23;;;4.70;;
76733;SDS011;65660;53.288;14.666;2023-04-01T08:28:13;6.57;;;4.47;;
76733;SDS011;65660;53.288;14.666;2023-04-01T08:33:29;6.90;;;4.93;;
76733;SDS011;65660;53.288;14.666;2023-04-01T08:49:05;10.37;;;5.67;;
76733;SDS011;65660;53.288;14.666;2023-04-01T09:04:35;8.77;;;5.20;;
76733;SDS011;65660;53.288;14.666;2023-04-01T09:26:28;7.60;;;4.40;;
76733;SDS011;65660;53.288;14.666;2023-04-01T09:37:46;4.63;;;3.70;;
76733;SDS011;65660;53.288;14.666;2023-04-01T10:36:41;5.53;;;4.00;;
76733;SDS011;65660;53.288;14.666;2023-04-01T10:41:57;4.73;;;3.07;;
76733;SDS011;65660;53.288;14.666;2023-04-01T11:03:29;6.13;;;4.00;;
76733;SDS011;65660;53.288;14.666;2023-04-01T11:08:59;5.97;;;3.90;;
76733;SDS011;65660;53.288;14.666;2023-04-01T11:30:06;5.13;;;3.30;;
76733;SDS011;65660;53.288;14.666;2023-04-01T11:35:27;5.67;;;3.70;;
76733;SDS011;65660;53.288;14.666;2023-04-01T11:45:46;6.07;;;4.10;;
76733;SDS011;65660;53.288;14.666;2023-04-01T12:17:31;12.40;;;7.67;;
76733;SDS011;65660;53.288;14.666;2023-04-01T12:55:18;5.20;;;3.93;;
76733;SDS011;65660;53.288;14.666;2023-04-01T13:11:08;4.93;;;2.93;;
76733;SDS011;65660;53.288;14.666;2023-04-01T13:16:29;4.93;;;3.53;;
76733;SDS011;65660;53.288;14.666;2023-04-01T13:21:55;4.63;;;2.90;;
76733;SDS011;65660;53.288;14.666;2023-04-01T13:42:57;5.70;;;3.37;;
76733;SDS011;65660;53.288;14.666;2023-04-01T13:54:11;3.40;;;2.60;;
76733;SDS011;65660;53.288;14.666;2023-04-01T14:04:34;8.97;;;3.80;;
76733;SDS011;65660;53.288;14.666;2023-04-01T14:15:23;3.27;;;2.63;;
76733;SDS011;65660;53.288;14.666;2023-04-01T14:20:38;3.30;;;2.73;;
76733;SDS011;65660;53.288;14.666;2023-04-01T14:31:59;3.37;;;3.03;;
76733;SDS011;65660;53.288;14.666;2023-04-01T14:53:44;7.67;;;6.97;;
76733;SDS011;65660;53.288;14.666;2023-04-01T15:05:16;8.20;;;5.10;;
76733;SDS011;65660;53.288;14.666;2023-04-01T15:10:31;5.77;;;4.70;;
76733;SDS011;65660;53.288;14.666;2023-04-01T15:21:18;6.53;;;4.70;;
76733;SDS011;65660;53.288;14.666;2023-04-01T15:26:51;7.80;;;4.60;;
76733;SDS011;65660;53.288;14.666;2023-04-01T15:32:01;7.67;;;4.50;;
76733;SDS011;65660;53.288;14.666;2023-04-01T15:58:25;7.77;;;5.03;;
76733;SDS011;65660;53.288;14.666;2023-04-01T16:03:58;7.83;;;4.13;;
76733;SDS011;65660;53.288;14.666;2023-04-01T16:09:02;6.30;;;5.00;;
76733;SDS011;65660;53.288;14.666;2023-04-01T16:19:37;9.13;;;4.63;;
76733;SDS011;65660;53.288;14.666;2023-04-01T16:40:50;7.70;;;4.60;;
76733;SDS011;65660;53.288;14.666;2023-04-01T16:51:13;9.77;;;5.20;;
76733;SDS011;65660;53.288;14.666;2023-04-01T16:56:23;12.03;;;6.33;;
76733;SDS011;65660;53.288;14.666;2023-04-01T17:01:40;7.80;;;4.87;;
76733;SDS011;65660;53.288;14.666;2023-04-01T17:43:01;6.57;;;3.60;;
76733;SDS011;65660;53.288;14.666;2023-04-01T17:48:18;5.23;;;4.20;;
76733;SDS011;65660;53.288;14.666;2023-04-01T17:58:45;4.90;;;3.40;;
76733;SDS011;65660;53.288;14.666;2023-04-01T18:03:54;7.17;;;3.67;;
76733;SDS011;65660;53.288;14.666;2023-04-01T18:08:58;5.20;;;3.50;;
76733;SDS011;65660;53.288;14.666;2023-04-01T18:30:13;6.77;;;3.80;;
76733;SDS011;65660;53.288;14.666;2023-04-01T18:40:47;7.13;;;3.80;;
76733;SDS011;65660;53.288;14.666;2023-04-01T18:45:57;6.27;;;3.50;;
76733;SDS011;65660;53.288;14.666;2023-04-01T18:51:03;4.37;;;3.10;;
76733;SDS011;65660;53.288;14.666;2023-04-01T19:23:45;3.47;;;3.07;;
76733;SDS011;65660;53.288;14.666;2023-04-01T20:01:21;3.83;;;2.90;;
76733;SDS011;65660;53.288;14.666;2023-04-01T20:06:35;4.73;;;3.10;;
76733;SDS011;65660;53.288;14.666;2023-04-01T20:17:07;3.77;;;2.70;;
76733;SDS011;65660;53.288;14.666;2023-04-01T20:22:55;3.87;;;2.83;;
76733;SDS011;65660;53.288;14.666;2023-04-01T20:27:47;5.47;;;3.57;;
76733;SDS011;65660;53.288;14.666;2023-04-01T20:44:03;6.83;;;5.40;;
76733;SDS011;65660;53.288;14.666;2023-04-01T21:16:08;3.70;;;2.60;;
76733;SDS011;65660;53.288;14.666;2023-04-01T21:26:38;3.50;;;2.80;;
76733;SDS011;65660;53.288;14.666;2023-04-01T21:58:38;3.03;;;2.60;;
76733;SDS011;65660;53.288;14.666;2023-04-01T22:03:54;3.23;;;2.80;;
76733;SDS011;65660;53.288;14.666;2023-04-01T22:09:18;5.83;;;3.00;;
76733;SDS011;65660;53.288;14.666;2023-04-01T22:31:11;4.60;;;2.90;;
76733;SDS011;65660;53.288;14.666;2023-04-01T22:36:18;4.93;;;2.87;;
76733;SDS011;65660;53.288;14.666;2023-04-01T22:41:36;4.67;;;3.07;;
76733;SDS011;65660;53.288;14.666;2023-04-01T22:52:24;5.40;;;3.97;;
76733;SDS011;65660;53.288;14.666;2023-04-01T23:03:13;3.97;;;2.70;;
76733;SDS011;65660;53.288;14.666;2023-04-01T23:08:35;5.40;;;2.80;;
76733;SDS011;65660;53.288;14.666;2023-04-01T23:13:47;5.87;;;2.87;;
76733;SDS011;65660;53.288;14.666;2023-04-01T23:18:59;3.23;;;2.90;;
76733;SDS011;65660;53.288;14.666;2023-04-01T23:29:12;3.87;;;2.50;;
76733;SDS011;65660;53.288;14.666;2023-04-01T23:34:20;6.80;;;4.03;;
76733;SDS011;65660;53.288;14.666;2023-04-01T23:39:28;3.73;;;2.80;;
76733;SDS011;65660;53.288;14.666;2023-04-01T23:44:34;4.37;;;2.73;;
76733;SDS011;65660;53.288;14.666;2023-04-01T23:49:39;4.07;;;2.53;;
